Time;durP1;ratioP1;P1;durP2;ratioP2;P2;SDS_P1;SDS_P2;PMS_P1;PMS_P2;Temp;Humidity;BMP_temperature;BMP_pressure;BME280_temperature;BME280_humidity;BME280_pressure;Samples;Min_cycle;Max_cycle;Signal;HPM_P1;HPM_P2
2023/12/25 00:00:19;;;;;;;4.35;0.85;;;;;;;11.86;100.00;100636.44;5096947;27;102905;-28
2023/12/25 00:02:45;;;;;;;2.92;1.13;;;;;;;11.86;100.00;100641.84;5097734;27;96532;-28
2023/12/25 00:05:10;;;;;;;4.47;0.65;;;;;;;11.87;100.00;100632.78;5097691;27;96873;-28
2023/12/25 00:07:35;;;;;;;4.93;0.98;;;;;;;11.85;100.00;100613.00;5096992;27;99323;-28
2023/12/25 00:10:01;;;;;;;3.47;0.55;;;;;;;11.81;100.00;100625.03;5097135;27;98685;-28
2023/12/25 00:12:26;;;;;;;5.38;1.40;;;;;;;11.83;100.00;100639.38;5097255;27;96507;-28
2023/12/25 00:14:52;;;;;;;3.40;0.80;;;;;;;11.84;100.00;100633.81;5078522;27;96930;-28
2023/12/25 00:17:17;;;;;;;3.60;0.70;;;;;;;11.84;100.00;100636.53;5096267;27;99384;-28
2023/12/25 00:19:43;;;;;;;4.15;0.77;;;;;;;11.85;100.00;100635.56;5096528;27;99227;-28
2023/12/25 00:22:08;;;;;;;9.70;1.13;;;;;;;11.83;100.00;100625.78;5096823;27;96593;-28
2023/12/25 00:24:33;;;;;;;5.03;0.63;;;;;;;11.85;100.00;100635.56;5097219;27;96845;-29
2023/12/25 00:26:59;;;;;;;1.63;0.60;;;;;;;11.86;100.00;100634.56;5097023;27;97462;-28
2023/12/25 00:29:24;;;;;;;4.25;0.85;;;;;;;11.85;100.00;100653.69;5096788;27;99733;-28
2023/12/25 00:31:49;;;;;;;2.60;0.90;;;;;;;11.87;100.00;100668.94;5096981;27;96612;-28
2023/12/25 00:34:15;;;;;;;5.20;0.57;;;;;;;11.83;100.00;100669.22;5097162;27;96825;-28
2023/12/25 00:36:40;;;;;;;0.50;0.32;;;;;;;11.88;100.00;100676.09;5096404;27;99357;-29
2023/12/25 00:39:06;;;;;;;0.98;0.52;;;;;;;11.86;100.00;100666.28;5096457;27;97278;-28
2023/12/25 00:41:31;;;;;;;2.17;0.43;;;;;;;11.86;100.00;100669.00;5096366;27;96658;-29
2023/12/25 00:44:00;;;;;;;4.03;0.75;;;;;;;11.80;100.00;100669.44;5096691;27;96808;-28
2023/12/25 00:46:25;;;;;;;2.58;0.73;;;;;;;11.78;100.00;100663.25;5096027;27;97896;-28
2023/12/25 00:48:51;;;;;;;6.88;1.67;;;;;;;11.82;100.00;100654.78;5095206;27;99161;-28
2023/12/25 00:51:16;;;;;;;4.05;0.45;;;;;;;11.83;100.00;100663.78;5096393;27;96606;-28
2023/12/25 00:53:42;;;;;;;1.13;0.50;;;;;;;11.78;100.00;100650.53;5096722;27;96913;-28
2023/12/25 00:56:08;;;;;;;3.25;0.68;;;;;;;11.81;100.00;100654.88;5095742;27;97396;-28
2023/12/25 00:58:33;;;;;;;7.38;1.17;;;;;;;11.77;100.00;100648.78;5077919;27;98976;-28
2023/12/25 01:00:59;;;;;;;11.00;0.75;;;;;;;11.81;100.00;100653.03;5096366;27;96558;-28
2023/12/25 01:03:24;;;;;;;2.97;0.65;;;;;;;11.81;100.00;100661.16;5096743;27;96899;-28
2023/12/25 01:05:49;;;;;;;4.10;0.47;;;;;;;11.82;100.00;100671.06;5095780;27;97604;-28
2023/12/25 01:08:15;;;;;;;7.97;1.02;;;;;;;11.79;100.00;100654.97;5095862;27;104417;-28
2023/12/25 01:10:40;;;;;;;3.65;0.43;;;;;;;11.79;100.00;100664.97;5096480;27;96772;-28
2023/12/25 01:13:05;;;;;;;6.60;1.13;;;;;;;11.76;100.00;100640.78;5096060;27;96873;-29
2023/12/25 01:15:31;;;;;;;4.10;0.77;;;;;;;11.79;100.00;100654.97;5095764;27;99413;-29
2023/12/25 01:17:56;;;;;;;1.85;0.55;;;;;;;11.77;100.00;100643.34;5095943;27;98071;-28
2023/12/25 01:20:21;;;;;;;3.17;0.55;;;;;;;11.77;100.00;100640.66;5096091;27;96527;-29
2023/12/25 01:22:47;;;;;;;6.60;1.48;;;;;;;11.77;100.00;100645.22;5096488;27;96966;-28
2023/12/25 01:25:12;;;;;;;6.05;0.90;;;;;;;11.74;100.00;100631.88;5095459;27;99920;-29
2023/12/25 01:27:41;;;;;;;1.40;0.32;;;;;;;11.74;100.00;100630.00;5095770;27;102758;-28
2023/12/25 01:30:10;;;;;;;2.08;0.43;;;;;;;11.78;100.00;100647.81;5095504;27;96593;-28
2023/12/25 01:32:36;;;;;;;4.72;1.15;;;;;;;11.73;100.00;100646.38;5095841;27;96914;-28
2023/12/25 01:35:01;;;;;;;1.23;0.38;;;;;;;11.81;100.00;100655.75;5095533;27;97610;-28
2023/12/25 01:37:27;;;;;;;3.30;0.40;;;;;;;11.81;100.00;100660.31;5095781;27;96581;-28
2023/12/25 01:39:52;;;;;;;2.88;0.73;;;;;;;11.79;100.00;100662.25;5095965;27;96727;-28
2023/12/25 01:42:17;;;;;;;5.40;0.60;;;;;;;11.75;100.00;100653.47;5095897;27;96909;-28
2023/12/25 01:44:44;;;;;;;4.78;0.60;;;;;;;11.80;100.00;100664.88;5095446;27;99300;-28
2023/12/25 01:47:11;;;;;;;3.63;0.68;;;;;;;11.77;100.00;100643.34;5095880;27;97804;-28
2023/12/25 01:49:37;;;;;;;1.50;0.47;;;;;;;11.87;100.00;100685.22;5077082;27;96689;-28
2023/12/25 01:52:03;;;;;;;1.55;0.43;;;;;;;11.78;100.00;100664.13;5095232;27;96950;-28
2023/12/25 01:54:28;;;;;;;1.60;0.73;;;;;;;11.82;100.00;100673.78;5076272;27;101210;-28
2023/12/25 01:56:54;;;;;;;1.60;0.40;;;;;;;11.85;100.00;100672.69;5094853;27;97881;-29
2023/12/25 01:59:19;;;;;;;2.25;0.73;;;;;;;11.79;100.00;100671.25;5097501;27;96603;-27
2023/12/25 02:01:44;;;;;;;2.90;0.63;;;;;;;11.83;100.00;100674.66;5099297;27;96911;-28
2023/12/25 02:04:10;;;;;;;6.55;0.52;;;;;;;11.79;100.00;100673.97;5098848;27;105424;-29
2023/12/25 02:06:36;;;;;;;3.83;0.77;;;;;;;11.85;100.00;100688.97;5098931;27;97424;-28
2023/12/25 02:09:02;;;;;;;2.90;1.23;;;;;;;11.76;100.00;100684.19;5080395;27;96752;-28
2023/12/25 02:11:28;;;;;;;3.40;0.63;;;;;;;11.76;100.00;100682.34;5099418;27;96886;-28
2023/12/25 02:13:56;;;;;;;2.70;0.50;;;;;;;11.80;100.00;100702.88;5098815;27;99295;-28
2023/12/25 02:16:23;;;;;;;3.10;0.65;;;;;;;11.86;100.00;100704.28;5080201;27;101177;-27
2023/12/25 02:18:49;;;;;;;7.65;1.00;;;;;;;11.82;100.00;100713.59;5080021;27;96464;-28
2023/12/25 02:21:15;;;;;;;3.03;0.57;;;;;;;11.82;100.00;100695.50;5080034;27;96904;-28
2023/12/25 02:23:42;;;;;;;3.42;0.63;;;;;;;11.84;100.00;100693.50;5098600;27;98385;-28
2023/12/25 02:26:08;;;;;;;2.38;0.43;;;;;;;11.85;100.00;100699.84;5098804;27;97261;-28
2023/12/25 02:28:33;;;;;;;5.93;1.35;;;;;;;11.83;100.00;100694.50;5080218;27;96593;-29
2023/12/25 02:30:59;;;;;;;8.50;0.80;;;;;;;11.83;100.00;100699.06;5098694;27;96919;-28
2023/12/25 02:33:24;;;;;;;0.40;0.25;;;;;;;11.81;100.00;100693.75;5098460;27;99213;-28
2023/12/25 02:35:50;;;;;;;2.72;0.35;;;;;;;11.84;100.00;100709.81;5098430;27;99134;-28
2023/12/25 02:38:15;;;;;;;6.90;0.85;;;;;;;11.85;100.00;100716.97;5098742;27;96548;-28
2023/12/25 02:40:41;;;;;;;4.63;0.28;;;;;;;11.80;100.00;100702.88;5098857;27;96800;-28
2023/12/25 02:43:10;;;;;;;3.15;0.70;;;;;;;11.81;100.00;100707.31;5097935;27;97960;-28
2023/12/25 02:45:35;;;;;;;3.03;0.70;;;;;;;11.86;100.00;100707.84;5079596;27;101023;-30
2023/12/25 02:48:01;;;;;;;2.75;0.63;;;;;;;11.85;100.00;100706.13;5098679;27;96519;-28
2023/12/25 02:50:26;;;;;;;4.45;0.43;;;;;;;11.82;100.00;100700.03;5098247;27;96827;-29
2023/12/25 02:52:53;;;;;;;4.15;0.77;;;;;;;11.85;100.00;100703.41;5098310;27;97950;-29
2023/12/25 02:55:18;;;;;;;1.33;0.32;;;;;;;11.82;100.00;100697.31;5079560;27;100490;-28
2023/12/25 02:57:44;;;;;;;1.63;0.40;;;;;;;11.83;100.00;100710.78;5098303;27;96514;-28
2023/12/25 03:00:10;;;;;;;3.13;0.50;;;;;;;11.86;100.00;100721.41;5098624;27;96962;-28
2023/12/25 03:02:35;;;;;;;2.38;0.70;;;;;;;11.80;100.00;100704.72;5098311;27;97455;-28
2023/12/25 03:05:00;;;;;;;1.05;0.20;;;;;;;11.87;100.00;100735.94;5097656;27;103847;-28
2023/12/25 03:07:26;;;;;;;3.42;0.60;;;;;;;11.84;100.00;100723.38;5097977;27;96595;-28
2023/12/25 03:09:51;;;;;;;2.28;0.75;;;;;;;11.83;100.00;100731.63;5097612;27;96851;-28
2023/12/25 03:12:16;;;;;;;0.65;0.30;;;;;;;11.83;100.00;100743.34;5097495;27;98052;-28
2023/12/25 03:14:42;;;;;;;1.52;0.52;;;;;;;11.85;100.00;100738.69;5097592;27;104009;-28
2023/12/25 03:17:07;;;;;;;0.80;0.25;;;;;;;11.84;100.00;100745.09;5098130;27;96457;-28
2023/12/25 03:19:32;;;;;;;5.75;0.63;;;;;;;11.85;100.00;100726.97;5097961;27;96928;-27
2023/12/25 03:21:57;;;;;;;2.60;0.68;;;;;;;11.84;100.00;100722.50;5097651;27;99040;-28
2023/12/25 03:24:23;;;;;;;2.45;0.70;;;;;;;11.84;100.00;100734.22;5098325;27;97882;-28
2023/12/25 03:26:49;;;;;;;1.42;0.22;;;;;;;11.84;100.00;100746.94;5098207;27;96646;-29
2023/12/25 03:29:15;;;;;;;2.17;0.47;;;;;;;11.87;100.00;100739.50;5079363;27;96911;-28
2023/12/25 03:31:40;;;;;;;1.83;0.60;;;;;;;11.88;100.00;100727.66;5097105;27;97522;-28
2023/12/25 03:34:06;;;;;;;1.77;0.22;;;;;;;11.87;100.00;100727.78;5097312;27;98845;-28
2023/12/25 03:36:31;;;;;;;2.53;0.32;;;;;;;11.93;100.00;100729.19;5097868;27;96672;-27
2023/12/25 03:38:56;;;;;;;3.70;0.60;;;;;;;11.89;100.00;100732.13;5097615;27;96975;-28
2023/12/25 03:41:22;;;;;;;2.17;0.80;;;;;;;11.85;100.00;100741.41;5097575;27;98183;-28
2023/12/25 03:43:47;;;;;;;2.42;0.30;;;;;;;11.90;100.00;100738.41;5097150;27;99517;-28
2023/12/25 03:46:12;;;;;;;4.75;0.68;;;;;;;11.86;100.00;100742.28;5097867;27;96616;-28
2023/12/25 03:48:37;;;;;;;1.05;0.43;;;;;;;11.90;100.00;100722.13;5098113;27;96891;-28
2023/12/25 03:51:03;;;;;;;1.98;0.65;;;;;;;11.89;100.00;100723.97;5096797;27;97461;-28
2023/12/25 03:53:28;;;;;;;1.83;0.68;;;;;;;11.88;100.00;100729.50;5097465;27;99243;-28
2023/12/25 03:55:54;;;;;;;3.17;0.47;;;;;;;11.88;100.00;100721.38;5096445;27;96768;-29
2023/12/25 03:58:19;;;;;;;2.53;0.28;;;;;;;11.88;100.00;100722.22;5097600;27;96684;-28
2023/12/25 04:00:44;;;;;;;0.85;0.15;;;;;;;11.89;100.00;100729.41;5097069;27;99497;-28
2023/12/25 04:03:11;;;;;;;2.55;0.40;;;;;;;11.84;100.00;100720.66;5096873;27;103679;-28
2023/12/25 04:05:36;;;;;;;1.35;0.35;;;;;;;11.88;100.00;100724.94;5078678;27;96752;-28
2023/12/25 04:08:02;;;;;;;9.07;0.98;;;;;;;11.85;100.00;100705.28;5097707;27;96773;-28
2023/12/25 04:10:27;;;;;;;0.50;0.17;;;;;;;11.90;100.00;100728.41;5096798;27;99258;-28
2023/12/25 04:12:53;;;;;;;8.75;0.70;;;;;;;11.86;100.00;100723.28;5097129;27;98807;-28
2023/12/25 04:15:18;;;;;;;1.55;0.38;;;;;;;11.88;100.00;100738.50;5096998;27;96774;-29
2023/12/25 04:17:43;;;;;;;0.10;0.10;;;;;;;11.87;100.00;100725.94;5097034;27;96853;-29
2023/12/25 04:20:09;;;;;;;1.30;0.25;;;;;;;11.87;100.00;100725.94;5095929;27;99312;-28
2023/12/25 04:22:35;;;;;;;1.10;0.50;;;;;;;11.86;100.00;100726.00;5077732;27;100668;-28
2023/12/25 04:25:00;;;;;;;2.80;0.35;;;;;;;11.89;100.00;100721.28;5096627;27;96656;-27
2023/12/25 04:27:26;;;;;;;1.90;0.40;;;;;;;11.85;100.00;100719.69;5097100;27;96536;-29
2023/12/25 04:29:51;;;;;;;2.85;0.30;;;;;;;11.87;100.00;100736.78;5078077;27;99302;-28
2023/12/25 04:32:18;;;;;;;1.10;0.50;;;;;;;11.87;100.00;100734.06;5096692;27;97272;-28
2023/12/25 04:34:43;;;;;;;4.32;0.60;;;;;;;11.86;100.00;100737.72;5096649;27;96751;-28
2023/12/25 04:37:08;;;;;;;0.50;0.35;;;;;;;11.78;100.00;100715.66;5097124;27;96908;-30
2023/12/25 04:39:34;;;;;;;1.13;0.57;;;;;;;11.89;100.00;100731.22;5096433;27;98047;-28
2023/12/25 04:42:00;;;;;;;1.60;0.52;;;;;;;11.83;100.00;100705.38;5096467;27;99223;-28
2023/12/25 04:44:25;;;;;;;4.32;0.63;;;;;;;11.88;100.00;100714.09;5077677;27;96800;-28
2023/12/25 04:46:51;;;;;;;0.45;0.20;;;;;;;11.80;100.00;100705.59;5096678;27;96807;-28
2023/12/25 04:49:16;;;;;;;2.60;0.63;;;;;;;11.90;100.00;100728.41;5096290;27;97458;-29
2023/12/25 04:51:41;;;;;;;1.63;0.40;;;;;;;11.88;100.00;100727.66;5096003;27;101824;-28
2023/12/25 04:54:07;;;;;;;0.08;0.05;;;;;;;11.86;100.00;100717.84;5096635;27;96768;-27
2023/12/25 04:56:32;;;;;;;0.00;0.00;;;;;;;11.81;100.00;100725.44;5096095;27;96862;-28
2023/12/25 04:58:57;;;;;;;0.40;0.15;;;;;;;11.65;100.00;100723.75;5096340;27;96849;-28
2023/12/25 05:01:23;;;;;;;0.98;0.30;;;;;;;11.56;100.00;100716.28;5096271;27;107063;-28
2023/12/25 05:03:48;;;;;;;4.05;0.43;;;;;;;11.49;100.00;100733.94;5096207;27;97363;-28
2023/12/25 05:06:13;;;;;;;0.32;0.10;;;;;;;11.32;100.00;100716.09;5096185;27;96855;-28
2023/12/25 05:08:39;;;;;;;0.40;0.20;;;;;;;11.27;100.00;100721.81;5095481;27;99251;-28
2023/12/25 05:11:04;;;;;;;0.00;0.00;;;;;;;11.20;100.00;100725.00;5096140;27;97809;-28
2023/12/25 05:13:30;;;;;;;0.00;0.00;;;;;;;11.16;100.00;100718.94;5096621;27;96596;-28
2023/12/25 05:15:55;;;;;;;0.00;0.00;;;;;;;11.14;100.00;100728.16;5077863;27;96837;-29
2023/12/25 05:18:21;;;;;;;0.00;0.00;;;;;;;11.14;100.00;100729.00;5095517;27;99018;-29
2023/12/25 05:20:46;;;;;;;0.05;0.03;;;;;;;11.10;100.00;100727.47;5095788;27;99212;-29
2023/12/25 05:23:11;;;;;;;0.00;0.00;;;;;;;11.08;100.00;100725.81;5095970;27;96570;-28
2023/12/25 05:25:37;;;;;;;2.58;0.32;;;;;;;11.10;100.00;100737.44;5096527;27;96838;-28
2023/12/25 05:28:02;;;;;;;0.10;0.10;;;;;;;11.07;100.00;100741.22;5095699;27;99312;-28
2023/12/25 05:30:28;;;;;;;0.10;0.00;;;;;;;11.07;100.00;100743.94;5095685;27;98842;-28
2023/12/25 05:32:53;;;;;;;2.03;0.38;;;;;;;11.04;100.00;100745.00;5095173;27;96512;-30
2023/12/25 05:35:18;;;;;;;0.05;0.00;;;;;;;11.07;100.00;100740.38;5099003;27;98264;-28
2023/12/25 05:37:44;;;;;;;0.20;0.13;;;;;;;11.07;100.00;100740.38;5099476;27;97895;-28
2023/12/25 05:40:10;;;;;;;1.20;0.10;;;;;;;11.07;100.00;100752.06;5099271;27;98685;-27
2023/12/25 05:42:36;;;;;;;0.10;0.10;;;;;;;11.04;100.00;100730.59;5080985;27;96582;-28
2023/12/25 05:45:02;;;;;;;2.15;0.30;;;;;;;11.02;100.00;100738.81;5100107;27;96421;-28
2023/12/25 05:47:27;;;;;;;0.47;0.00;;;;;;;11.05;100.00;100752.16;5098951;27;99737;-28
2023/12/25 05:49:53;;;;;;;0.00;0.00;;;;;;;11.00;100.00;100748.88;5099893;27;97806;-28
2023/12/25 05:52:18;;;;;;;0.45;0.30;;;;;;;11.04;100.00;100752.28;5099156;27;96496;-28
2023/12/25 05:54:44;;;;;;;0.65;0.20;;;;;;;11.02;100.00;100757.78;5099699;27;96784;-28
2023/12/25 05:57:09;;;;;;;0.38;0.25;;;;;;;10.98;100.00;100742.69;5097838;27;99274;-28
2023/12/25 05:59:37;;;;;;;0.25;0.08;;;;;;;10.89;100.00;100747.84;5099189;27;97370;-28
2023/12/25 06:02:03;;;;;;;2.60;0.40;;;;;;;10.90;100.00;100764.00;5080813;27;96610;-28
2023/12/25 06:04:28;;;;;;;0.00;0.00;;;;;;;10.93;100.00;100762.94;5080719;27;96934;-28
2023/12/25 06:06:53;;;;;;;0.98;0.20;;;;;;;10.84;100.00;100749.03;5098852;27;108039;-28
2023/12/25 06:09:20;;;;;;;0.50;0.17;;;;;;;10.80;100.00;100743.91;5098845;27;99737;-29
2023/12/25 06:11:46;;;;;;;0.70;0.30;;;;;;;10.86;100.00;100754.31;5080471;27;96681;-29
2023/12/25 06:14:11;;;;;;;2.53;0.50;;;;;;;10.79;100.00;100742.13;5099467;27;96859;-28
2023/12/25 06:16:36;;;;;;;0.55;0.20;;;;;;;10.82;100.00;100756.38;5098997;27;96857;-28
2023/12/25 06:19:02;;;;;;;0.60;0.25;;;;;;;10.75;100.00;100732.47;5098664;27;99142;-30
2023/12/25 06:21:27;;;;;;;0.98;0.20;;;;;;;10.81;100.00;100734.78;5098494;27;96472;-28
2023/12/25 06:23:53;;;;;;;0.98;0.22;;;;;;;10.83;100.00;100744.56;5099104;27;96797;-27
2023/12/25 06:26:19;;;;;;;0.08;0.08;;;;;;;10.81;100.00;100738.38;5098654;27;99517;-28
2023/12/25 06:28:44;;;;;;;0.20;0.08;;;;;;;10.85;100.00;100747.19;5098765;27;97238;-28
2023/12/25 06:31:09;;;;;;;0.13;0.05;;;;;;;10.82;100.00;100747.34;5099010;27;96635;-30
2023/12/25 06:33:35;;;;;;;0.25;0.03;;;;;;;10.87;100.00;100747.97;5098874;27;96906;-28
2023/12/25 06:36:01;;;;;;;0.25;0.10;;;;;;;10.87;100.00;100734.41;5098287;27;99479;-28
2023/12/25 06:38:26;;;;;;;1.55;0.32;;;;;;;10.89;100.00;100743.28;5098919;27;97272;-28
2023/12/25 06:40:51;;;;;;;0.10;0.10;;;;;;;10.85;100.00;100744.47;5098777;27;96676;-28
2023/12/25 06:43:17;;;;;;;0.10;0.10;;;;;;;10.90;100.00;100755.88;5098617;27;96880;-29
2023/12/25 06:45:42;;;;;;;0.20;0.20;;;;;;;10.91;100.00;100745.91;5097971;27;97489;-28
2023/12/25 06:48:07;;;;;;;0.05;0.03;;;;;;;10.94;100.00;100746.59;5098143;27;98884;-28
2023/12/25 06:50:33;;;;;;;0.43;0.13;;;;;;;10.95;100.00;100752.88;5098446;27;96949;-27
2023/12/25 06:52:58;;;;;;;0.10;0.10;;;;;;;10.98;100.00;100748.09;5099004;27;96712;-28
2023/12/25 06:55:24;;;;;;;0.03;0.00;;;;;;;10.97;100.00;100759.94;5097651;27;99425;-28
2023/12/25 06:57:50;;;;;;;0.20;0.20;;;;;;;10.97;100.00;100762.63;5079663;27;101021;-28
2023/12/25 07:00:15;;;;;;;2.75;0.32;;;;;;;10.95;100.00;100764.56;5098461;27;96697;-28
2023/12/25 07:02:40;;;;;;;3.45;0.50;;;;;;;10.95;100.00;100761.00;5098629;27;96896;-28
2023/12/25 07:05:06;;;;;;;0.20;0.10;;;;;;;11.04;100.00;100777.53;5097941;27;105170;-29
2023/12/25 07:07:31;;;;;;;5.68;0.52;;;;;;;11.08;100.00;100774.63;5098262;27;97841;-28
2023/12/25 07:09:57;;;;;;;0.10;0.10;;;;;;;11.02;100.00;100765.91;5097880;27;96632;-28
2023/12/25 07:12:23;;;;;;;0.17;0.10;;;;;;;11.02;100.00;100774.06;5098432;27;96826;-28
2023/12/25 07:14:50;;;;;;;0.03;0.03;;;;;;;11.03;100.00;100774.91;5079372;27;99065;-28
2023/12/25 07:17:16;;;;;;;0.00;0.00;;;;;;;10.98;100.00;100766.22;5079128;27;98907;-29
2023/12/25 07:19:41;;;;;;;1.20;0.45;;;;;;;11.00;100.00;100772.41;5098272;27;96665;-28
2023/12/25 07:22:07;;;;;;;0.88;0.55;;;;;;;11.00;100.00;100772.41;5097990;27;96827;-28
2023/12/25 07:24:32;;;;;;;0.28;0.10;;;;;;;11.02;100.00;100782.19;5097981;27;97869;-28
2023/12/25 07:26:57;;;;;;;0.38;0.20;;;;;;;11.04;100.00;100788.38;5098246;27;97763;-28
2023/12/25 07:29:23;;;;;;;0.95;0.28;;;;;;;11.02;100.00;100782.19;5098155;27;96797;-28
2023/12/25 07:31:49;;;;;;;0.00;0.00;;;;;;;11.04;100.00;100785.66;5079281;27;96921;-28
2023/12/25 07:34:14;;;;;;;4.47;0.10;;;;;;;11.06;100.00;100793.72;5097229;27;97984;-28
2023/12/25 07:36:39;;;;;;;0.20;0.15;;;;;;;11.03;100.00;100788.47;5097452;27;97535;-28
2023/12/25 07:39:05;;;;;;;1.75;0.15;;;;;;;11.09;100.00;100792.66;5097880;27;96729;-28
2023/12/25 07:41:31;;;;;;;0.10;0.08;;;;;;;11.09;100.00;100788.09;5097812;27;96512;-28
2023/12/25 07:44:00;;;;;;;0.20;0.10;;;;;;;11.07;100.00;100783.72;5097611;27;97964;-28
2023/12/25 07:46:26;;;;;;;0.20;0.10;;;;;;;11.11;100.00;100793.38;5078607;27;100921;-28
2023/12/25 07:48:54;;;;;;;0.08;0.05;;;;;;;11.08;100.00;100804.44;5079109;27;96678;-30
2023/12/25 07:51:19;;;;;;;0.10;0.03;;;;;;;11.03;100.00;100810.16;5097881;27;96795;-28
2023/12/25 07:53:45;;;;;;;0.20;0.10;;;;;;;11.04;100.00;100812.78;5097753;27;97374;-28
2023/12/25 07:56:10;;;;;;;3.13;0.35;;;;;;;10.99;100.00;100805.91;5096277;27;99640;-28
2023/12/25 07:58:35;;;;;;;0.22;0.22;;;;;;;10.96;100.00;100798.81;5096749;27;98525;-29
2023/12/25 08:01:01;;;;;;;0.20;0.10;;;;;;;10.91;100.00;100789.25;5097375;27;96979;-30
2023/12/25 08:03:27;;;;;;;0.05;0.05;;;;;;;10.95;100.00;100802.53;5078405;27;100900;-28
2023/12/25 08:05:52;;;;;;;0.85;0.43;;;;;;;10.95;100.00;100807.94;5078626;27;99193;-28
2023/12/25 08:08:17;;;;;;;0.13;0.10;;;;;;;10.91;100.00;100800.97;5097037;27;96565;-29
2023/12/25 08:10:43;;;;;;;0.30;0.20;;;;;;;10.97;100.00;100810.56;5097136;27;96940;-28
2023/12/25 08:13:08;;;;;;;0.35;0.20;;;;;;;10.93;100.00;100801.75;5097107;27;97999;-28
2023/12/25 08:15:33;;;;;;;0.17;0.10;;;;;;;10.95;100.00;100807.06;5096706;27;107218;-29
2023/12/25 08:17:59;;;;;;;0.10;0.03;;;;;;;11.00;100.00;100815.78;5097408;27;96742;-28
2023/12/25 08:20:24;;;;;;;1.33;0.10;;;;;;;10.97;100.00;100806.00;5097310;27;96769;-28
2023/12/25 08:22:50;;;;;;;0.05;0.00;;;;;;;11.05;100.00;100805.50;5096274;27;98816;-29
2023/12/25 08:25:16;;;;;;;0.03;0.03;;;;;;;11.07;100.00;100817.13;5097003;27;97304;-29
2023/12/25 08:27:41;;;;;;;0.00;0.00;;;;;;;11.05;100.00;100800.94;5078426;27;96742;-28
2023/12/25 08:30:07;;;;;;;0.00;0.00;;;;;;;11.05;100.00;100810.94;5097098;27;96835;-28
2023/12/25 08:32:33;;;;;;;0.05;0.03;;;;;;;11.06;100.00;100809.97;5077966;27;102357;-28
2023/12/25 08:34:58;;;;;;;0.40;0.10;;;;;;;11.07;100.00;100814.41;5096658;27;97775;-28
2023/12/25 08:37:23;;;;;;;0.63;0.13;;;;;;;11.06;100.00;100823.53;5097012;27;96854;-28
2023/12/25 08:39:49;;;;;;;0.10;0.10;;;;;;;11.09;100.00;100825.16;5097325;27;96818;-28
2023/12/25 08:42:15;;;;;;;0.10;0.00;;;;;;;11.10;100.00;100838.59;5096968;27;97419;-28
2023/12/25 08:44:41;;;;;;;0.00;0.00;;;;;;;11.04;100.00;100845.31;5096357;27;97861;-29
2023/12/25 08:47:06;;;;;;;0.25;0.25;;;;;;;11.04;100.00;100858.00;5077655;27;96711;-28
2023/12/25 08:49:31;;;;;;;0.75;0.22;;;;;;;11.01;100.00;100853.63;5096753;27;96856;-29
2023/12/25 08:51:58;;;;;;;0.00;0.00;;;;;;;11.06;100.00;100837.09;5096138;27;97479;-28
2023/12/25 08:54:24;;;;;;;0.65;0.03;;;;;;;11.02;100.00;100844.53;5077725;27;101354;-28
2023/12/25 08:56:49;;;;;;;0.20;0.10;;;;;;;11.05;100.00;100835.31;5095809;27;97185;-28
2023/12/25 08:59:14;;;;;;;2.58;0.17;;;;;;;11.08;100.00;100834.25;5096388;27;96817;-29
2023/12/25 09:01:40;;;;;;;0.32;0.13;;;;;;;11.09;100.00;100846.84;5096399;27;97517;-28
2023/12/25 09:04:06;;;;;;;0.00;0.00;;;;;;;11.06;100.00;100842.50;5096295;27;108103;-28
2023/12/25 09:06:32;;;;;;;3.40;0.22;;;;;;;11.13;100.00;100860.13;5077850;27;96609;-28
2023/12/25 09:08:57;;;;;;;0.40;0.20;;;;;;;11.18;100.00;100866.13;5095845;27;96789;-28
2023/12/25 09:11:23;;;;;;;0.63;0.22;;;;;;;11.19;100.00;100872.41;5095732;27;98161;-28
2023/12/25 09:13:48;;;;;;;0.68;0.25;;;;;;;11.17;100.00;100883.34;5096103;27;102607;-27
2023/12/25 09:16:13;;;;;;;0.08;0.08;;;;;;;11.16;100.00;100878.03;5096456;27;96518;-28
2023/12/25 09:18:38;;;;;;;0.63;0.30;;;;;;;11.15;100.00;100877.13;5095983;27;96924;-28
2023/12/25 09:21:04;;;;;;;0.88;0.15;;;;;;;11.09;100.00;100882.97;5095336;27;107526;-28
2023/12/25 09:23:29;;;;;;;0.60;0.30;;;;;;;11.17;100.00;100898.75;5095963;27;97791;-28
2023/12/25 09:25:55;;;;;;;0.00;0.00;;;;;;;11.12;100.00;100890.03;5096386;27;96503;-28
2023/12/25 09:28:21;;;;;;;0.80;0.35;;;;;;;11.17;100.00;100898.75;5096828;27;96906;-28
2023/12/25 09:30:46;;;;;;;1.40;0.20;;;;;;;11.12;100.00;100887.31;5077281;27;101564;-28
2023/12/25 09:33:12;;;;;;;0.17;0.17;;;;;;;11.13;100.00;100875.50;5095831;27;97707;-28
2023/12/25 09:35:37;;;;;;;0.10;0.10;;;;;;;11.14;100.00;100874.53;5095505;27;96508;-28
2023/12/25 09:38:03;;;;;;;0.03;0.03;;;;;;;11.11;100.00;100885.56;5095957;27;96843;-28
2023/12/25 09:40:30;;;;;;;0.32;0.22;;;;;;;11.14;100.00;100885.38;5095509;27;99336;-28
2023/12/25 09:42:59;;;;;;;0.28;0.20;;;;;;;11.10;100.00;100887.41;5076916;27;101084;-28
2023/12/25 09:45:31;;;;;;;0.45;0.22;;;;;;;11.12;100.00;100874.63;5077154;27;96548;-28
2023/12/25 09:47:57;;;;;;;0.10;0.10;;;;;;;11.15;100.00;100890.69;5077514;27;96792;-29
2023/12/25 09:50:23;;;;;;;0.40;0.15;;;;;;;11.18;100.00;100885.09;5095547;27;97386;-28
2023/12/25 09:52:48;;;;;;;1.02;0.22;;;;;;;11.16;100.00;100876.19;5077420;27;100864;-28
2023/12/25 09:55:13;;;;;;;0.35;0.20;;;;;;;11.18;100.00;100876.09;5095988;27;96809;-28
2023/12/25 09:57:40;;;;;;;0.17;0.10;;;;;;;11.18;100.00;100892.38;5095574;27;97605;-28
2023/12/25 10:00:08;;;;;;;2.00;0.32;;;;;;;11.19;100.00;100900.38;5076283;27;101019;-28
2023/12/25 10:02:37;;;;;;;1.90;0.28;;;;;;;11.21;100.00;100917.44;5095216;27;99786;-28
2023/12/25 10:05:04;;;;;;;0.52;0.17;;;;;;;11.16;100.00;100908.72;5095546;27;96630;-29
2023/12/25 10:07:29;;;;;;;0.00;0.00;;;;;;;11.17;100.00;100902.31;5077211;27;96886;-28
2023/12/25 10:09:57;;;;;;;3.53;0.65;;;;;;;11.18;100.00;100906.78;5095101;27;100106;-28
2023/12/25 10:12:23;;;;;;;0.10;0.10;;;;;;;11.22;100.00;100902.03;5095330;27;97272;-28
2023/12/25 10:14:48;;;;;;;3.25;0.17;;;;;;;11.21;100.00;100895.72;5095838;27;96706;-28
2023/12/25 10:17:13;;;;;;;0.13;0.13;;;;;;;11.24;100.00;100908.22;5096129;27;96825;-28
2023/12/25 10:19:50;;;;;;;0.40;0.20;;;;;;;11.22;100.00;100900.19;5095701;27;100414;-28
2023/12/25 10:22:33;;;;;;;0.13;0.10;;;;;;;11.22;100.00;100891.19;5098664;27;99274;-29
2023/12/25 10:25:10;;;;;;;0.10;0.00;;;;;;;11.18;100.00;100881.53;5098371;27;96563;-28
2023/12/25 10:27:40;;;;;;;0.00;0.00;;;;;;;11.23;100.00;100865.81;5080367;27;96952;-28
2023/12/25 10:30:27;;;;;;;0.03;0.00;;;;;;;11.22;100.00;100875.78;5079971;27;100817;-30
2023/12/25 10:33:14;;;;;;;0.30;0.05;;;;;;;11.22;100.00;100889.31;5079926;27;100759;-28
2023/12/25 10:35:41;;;;;;;0.05;0.05;;;;;;;11.19;100.00;100902.22;5098600;27;96524;-29
2023/12/25 10:38:07;;;;;;;2.92;0.25;;;;;;;11.23;100.00;100901.06;5080204;27;97083;-28
2023/12/25 10:40:33;;;;;;;0.17;0.10;;;;;;;11.19;100.00;100885.97;5098522;27;97450;-28
2023/12/25 10:42:59;;;;;;;0.10;0.05;;;;;;;11.21;100.00;100908.44;5078372;27;100979;-28
2023/12/25 10:45:26;;;;;;;0.43;0.10;;;;;;;11.16;100.00;100915.97;5098553;27;96606;-32
2023/12/25 10:47:56;;;;;;;0.10;0.10;;;;;;;11.16;100.00;100903.28;5079918;27;96844;-29
2023/12/25 10:50:26;;;;;;;1.83;0.32;;;;;;;11.17;100.00;100913.16;5078758;27;100802;-29
2023/12/25 10:52:53;;;;;;;4.32;0.35;;;;;;;11.21;100.00;100905.72;5076727;27;100922;-29
2023/12/25 10:55:35;;;;;;;1.65;0.15;;;;;;;11.25;100.00;100902.72;5074488;27;96760;-28
2023/12/25 10:58:02;;;;;;;0.30;0.00;;;;;;;11.25;100.00;100893.72;5060613;27;96725;-31
2023/12/25 11:00:28;;;;;;;1.20;0.20;;;;;;;11.23;100.00;100880.25;5056622;27;101071;-30
2023/12/25 11:02:57;;;;;;;0.00;0.00;;;;;;;11.31;100.00;100890.59;5057009;27;100918;-29
2023/12/25 11:05:23;;;;;;;0.10;0.00;;;;;;;11.38;100.00;100897.38;5057972;27;96931;-28
2023/12/25 11:07:49;;;;;;;0.55;0.13;;;;;;;11.42;100.00;100890.78;5058466;27;96987;-28
2023/12/25 11:10:15;;;;;;;0.85;0.20;;;;;;;11.47;100.00;100879.63;5057587;27;101554;-30